sensor_id;sensor_type;location;lat;lon;timestamp;P1;durP1;ratioP1;P2;durP2;ratioP2
64061;SDS011;50308;47.438;-1.528;2023-09-12T00:01:08;5.45;;;4.90;;
64061;SDS011;50308;47.438;-1.528;2023-09-12T00:03:33;5.05;;;4.30;;
64061;SDS011;50308;47.438;-1.528;2023-09-12T00:06:00;5.95;;;4.70;;
64061;SDS011;50308;47.438;-1.528;2023-09-12T00:08:27;6.93;;;4.78;;
64061;SDS011;50308;47.438;-1.528;2023-09-12T00:11:03;5.60;;;4.60;;
64061;SDS011;50308;47.438;-1.528;2023-09-12T00:13:31;6.30;;;4.97;;
64061;SDS011;50308;47.438;-1.528;2023-09-12T00:15:57;6.85;;;4.20;;
64061;SDS011;50308;47.438;-1.528;2023-09-12T00:18:23;5.32;;;4.53;;
64061;SDS011;50308;47.438;-1.528;2023-09-12T00:20:50;4.75;;;4.28;;
64061;SDS011;50308;47.438;-1.528;2023-09-12T00:23:17;5.05;;;4.38;;
64061;SDS011;50308;47.438;-1.528;2023-09-12T00:25:43;6.38;;;4.90;;
64061;SDS011;50308;47.438;-1.528;2023-09-12T00:28:09;6.43;;;5.00;;
64061;SDS011;50308;47.438;-1.528;2023-09-12T00:30:35;5.75;;;4.40;;
64061;SDS011;50308;47.438;-1.528;2023-09-12T00:33:00;5.38;;;4.03;;
64061;SDS011;50308;47.438;-1.528;2023-09-12T00:35:26;6.82;;;4.43;;
64061;SDS011;50308;47.438;-1.528;2023-09-12T00:37:51;6.50;;;4.47;;
64061;SDS011;50308;47.438;-1.528;2023-09-12T00:40:17;6.18;;;4.57;;
64061;SDS011;50308;47.438;-1.528;2023-09-12T00:42:43;6.15;;;4.22;;
64061;SDS011;50308;47.438;-1.528;2023-09-12T00:45:08;5.22;;;4.18;;
64061;SDS011;50308;47.438;-1.528;2023-09-12T00:47:34;5.97;;;4.35;;
64061;SDS011;50308;47.438;-1.528;2023-09-12T00:50:01;6.18;;;4.63;;
64061;SDS011;50308;47.438;-1.528;2023-09-12T00:52:29;7.15;;;4.30;;
64061;SDS011;50308;47.438;-1.528;2023-09-12T00:54:57;5.35;;;4.40;;
64061;SDS011;50308;47.438;-1.528;2023-09-12T00:57:23;5.68;;;4.25;;
64061;SDS011;50308;47.438;-1.528;2023-09-12T00:59:50;5.70;;;4.30;;
64061;SDS011;50308;47.438;-1.528;2023-09-12T01:02:18;6.05;;;4.65;;
64061;SDS011;50308;47.438;-1.528;2023-09-12T01:07:13;6.05;;;4.28;;
64061;SDS011;50308;47.438;-1.528;2023-09-12T01:09:39;8.25;;;4.60;;
64061;SDS011;50308;47.438;-1.528;2023-09-12T01:12:05;6.50;;;4.43;;
64061;SDS011;50308;47.438;-1.528;2023-09-12T01:14:31;7.35;;;4.63;;
64061;SDS011;50308;47.438;-1.528;2023-09-12T01:16:57;5.82;;;4.47;;
64061;SDS011;50308;47.438;-1.528;2023-09-12T01:19:23;4.90;;;4.40;;
64061;SDS011;50308;47.438;-1.528;2023-09-12T01:21:56;5.93;;;4.30;;
64061;SDS011;50308;47.438;-1.528;2023-09-12T01:27:19;7.30;;;4.15;;
64061;SDS011;50308;47.438;-1.528;2023-09-12T01:29:49;5.38;;;4.30;;
64061;SDS011;50308;47.438;-1.528;2023-09-12T01:32:19;4.25;;;3.75;;
64061;SDS011;50308;47.438;-1.528;2023-09-12T01:34:45;4.50;;;4.10;;
64061;SDS011;50308;47.438;-1.528;2023-09-12T01:37:11;7.05;;;4.55;;
64061;SDS011;50308;47.438;-1.528;2023-09-12T01:39:37;5.15;;;4.28;;
64061;SDS011;50308;47.438;-1.528;2023-09-12T01:42:02;6.07;;;4.55;;
64061;SDS011;50308;47.438;-1.528;2023-09-12T01:44:29;7.43;;;4.32;;
64061;SDS011;50308;47.438;-1.528;2023-09-12T01:46:56;4.95;;;3.60;;
64061;SDS011;50308;47.438;-1.528;2023-09-12T01:49:27;5.70;;;4.00;;
64061;SDS011;50308;47.438;-1.528;2023-09-12T01:51:53;5.90;;;4.03;;
64061;SDS011;50308;47.438;-1.528;2023-09-12T01:54:20;5.18;;;4.00;;
64061;SDS011;50308;47.438;-1.528;2023-09-12T01:56:47;5.68;;;4.20;;
64061;SDS011;50308;47.438;-1.528;2023-09-12T01:59:13;5.78;;;4.18;;
64061;SDS011;50308;47.438;-1.528;2023-09-12T02:01:39;6.25;;;4.00;;
64061;SDS011;50308;47.438;-1.528;2023-09-12T02:04:06;5.07;;;3.97;;
64061;SDS011;50308;47.438;-1.528;2023-09-12T02:06:34;4.32;;;3.92;;
64061;SDS011;50308;47.438;-1.528;2023-09-12T02:09:00;5.93;;;3.95;;
64061;SDS011;50308;47.438;-1.528;2023-09-12T02:11:26;5.18;;;3.60;;
64061;SDS011;50308;47.438;-1.528;2023-09-12T02:13:52;6.85;;;4.10;;
64061;SDS011;50308;47.438;-1.528;2023-09-12T02:16:18;5.63;;;3.85;;
64061;SDS011;50308;47.438;-1.528;2023-09-12T02:18:43;5.05;;;3.75;;
64061;SDS011;50308;47.438;-1.528;2023-09-12T02:21:09;6.30;;;4.03;;
64061;SDS011;50308;47.438;-1.528;2023-09-12T02:23:35;5.18;;;3.95;;
64061;SDS011;50308;47.438;-1.528;2023-09-12T02:26:00;5.63;;;4.30;;
64061;SDS011;50308;47.438;-1.528;2023-09-12T02:28:26;6.05;;;4.25;;
64061;SDS011;50308;47.438;-1.528;2023-09-12T02:30:52;5.28;;;4.18;;
64061;SDS011;50308;47.438;-1.528;2023-09-12T02:33:17;5.32;;;4.00;;
64061;SDS011;50308;47.438;-1.528;2023-09-12T02:35:43;4.40;;;3.45;;
64061;SDS011;50308;47.438;-1.528;2023-09-12T02:38:09;6.65;;;4.18;;
64061;SDS011;50308;47.438;-1.528;2023-09-12T02:40:34;4.82;;;3.90;;
64061;SDS011;50308;47.438;-1.528;2023-09-12T02:43:00;5.85;;;3.88;;
64061;SDS011;50308;47.438;-1.528;2023-09-12T02:45:26;6.30;;;3.80;;
64061;SDS011;50308;47.438;-1.528;2023-09-12T02:47:51;6.18;;;3.65;;
64061;SDS011;50308;47.438;-1.528;2023-09-12T02:50:17;5.22;;;3.65;;
64061;SDS011;50308;47.438;-1.528;2023-09-12T02:52:43;6.50;;;3.70;;
64061;SDS011;50308;47.438;-1.528;2023-09-12T02:55:08;5.75;;;4.00;;
64061;SDS011;50308;47.438;-1.528;2023-09-12T02:57:34;5.65;;;3.67;;
64061;SDS011;50308;47.438;-1.528;2023-09-12T03:00:00;4.85;;;3.55;;
64061;SDS011;50308;47.438;-1.528;2023-09-12T03:02:25;4.72;;;3.72;;
64061;SDS011;50308;47.438;-1.528;2023-09-12T03:04:54;7.20;;;4.25;;
64061;SDS011;50308;47.438;-1.528;2023-09-12T03:07:19;7.38;;;4.38;;
64061;SDS011;50308;47.438;-1.528;2023-09-12T03:09:47;3.97;;;3.30;;
64061;SDS011;50308;47.438;-1.528;2023-09-12T03:12:14;6.32;;;3.92;;
64061;SDS011;50308;47.438;-1.528;2023-09-12T03:14:40;4.45;;;3.28;;
64061;SDS011;50308;47.438;-1.528;2023-09-12T03:17:06;6.95;;;3.97;;
64061;SDS011;50308;47.438;-1.528;2023-09-12T03:19:31;5.93;;;3.75;;
64061;SDS011;50308;47.438;-1.528;2023-09-12T03:21:57;4.93;;;3.80;;
64061;SDS011;50308;47.438;-1.528;2023-09-12T03:24:23;5.70;;;3.80;;
64061;SDS011;50308;47.438;-1.528;2023-09-12T03:26:50;5.07;;;3.72;;
64061;SDS011;50308;47.438;-1.528;2023-09-12T03:29:16;4.78;;;3.65;;
64061;SDS011;50308;47.438;-1.528;2023-09-12T03:31:42;5.88;;;3.50;;
64061;SDS011;50308;47.438;-1.528;2023-09-12T03:34:07;4.90;;;3.30;;
64061;SDS011;50308;47.438;-1.528;2023-09-12T03:36:33;5.40;;;3.03;;
64061;SDS011;50308;47.438;-1.528;2023-09-12T03:38:59;5.63;;;3.97;;
64061;SDS011;50308;47.438;-1.528;2023-09-12T03:41:25;4.13;;;3.58;;
64061;SDS011;50308;47.438;-1.528;2023-09-12T03:43:54;5.18;;;3.70;;
64061;SDS011;50308;47.438;-1.528;2023-09-12T03:46:20;6.28;;;3.78;;
64061;SDS011;50308;47.438;-1.528;2023-09-12T03:48:46;3.67;;;3.25;;
64061;SDS011;50308;47.438;-1.528;2023-09-12T03:51:12;4.63;;;3.72;;
64061;SDS011;50308;47.438;-1.528;2023-09-12T03:53:38;4.70;;;3.00;;
64061;SDS011;50308;47.438;-1.528;2023-09-12T03:56:04;4.68;;;3.65;;
64061;SDS011;50308;47.438;-1.528;2023-09-12T03:58:29;5.03;;;3.38;;
64061;SDS011;50308;47.438;-1.528;2023-09-12T04:00:55;4.15;;;2.97;;
64061;SDS011;50308;47.438;-1.528;2023-09-12T04:03:21;6.15;;;3.35;;
64061;SDS011;50308;47.438;-1.528;2023-09-12T04:05:47;4.30;;;2.83;;
64061;SDS011;50308;47.438;-1.528;2023-09-12T04:08:13;4.57;;;3.50;;
64061;SDS011;50308;47.438;-1.528;2023-09-12T04:10:38;5.78;;;3.30;;
64061;SDS011;50308;47.438;-1.528;2023-09-12T04:13:04;4.68;;;3.28;;
64061;SDS011;50308;47.438;-1.528;2023-09-12T04:15:30;3.92;;;3.20;;
64061;SDS011;50308;47.438;-1.528;2023-09-12T04:17:55;5.38;;;3.35;;
64061;SDS011;50308;47.438;-1.528;2023-09-12T04:20:21;4.35;;;2.95;;
64061;SDS011;50308;47.438;-1.528;2023-09-12T04:22:47;5.45;;;2.92;;
64061;SDS011;50308;47.438;-1.528;2023-09-12T04:25:12;4.63;;;3.35;;
64061;SDS011;50308;47.438;-1.528;2023-09-12T04:27:38;4.20;;;2.88;;
64061;SDS011;50308;47.438;-1.528;2023-09-12T04:30:06;5.35;;;3.35;;
64061;SDS011;50308;47.438;-1.528;2023-09-12T04:32:32;5.07;;;2.75;;
64061;SDS011;50308;47.438;-1.528;2023-09-12T04:34:58;4.28;;;2.72;;
64061;SDS011;50308;47.438;-1.528;2023-09-12T04:37:24;6.70;;;3.47;;
64061;SDS011;50308;47.438;-1.528;2023-09-12T04:39:50;4.13;;;2.78;;
64061;SDS011;50308;47.438;-1.528;2023-09-12T04:42:15;4.57;;;3.15;;
64061;SDS011;50308;47.438;-1.528;2023-09-12T04:44:41;4.60;;;3.17;;
64061;SDS011;50308;47.438;-1.528;2023-09-12T04:47:07;4.97;;;3.40;;
64061;SDS011;50308;47.438;-1.528;2023-09-12T04:49:34;5.70;;;3.15;;
64061;SDS011;50308;47.438;-1.528;2023-09-12T04:52:00;4.35;;;3.13;;
64061;SDS011;50308;47.438;-1.528;2023-09-12T04:54:26;5.65;;;3.00;;
64061;SDS011;50308;47.438;-1.528;2023-09-12T04:56:51;3.55;;;2.97;;
64061;SDS011;50308;47.438;-1.528;2023-09-12T04:59:18;6.18;;;3.17;;
64061;SDS011;50308;47.438;-1.528;2023-09-12T05:01:43;4.93;;;3.10;;
64061;SDS011;50308;47.438;-1.528;2023-09-12T05:04:09;5.88;;;3.08;;
64061;SDS011;50308;47.438;-1.528;2023-09-12T05:06:35;5.57;;;3.20;;
64061;SDS011;50308;47.438;-1.528;2023-09-12T05:09:01;4.43;;;2.97;;
64061;SDS011;50308;47.438;-1.528;2023-09-12T05:11:28;4.65;;;3.25;;
64061;SDS011;50308;47.438;-1.528;2023-09-12T05:13:53;3.95;;;3.25;;
64061;SDS011;50308;47.438;-1.528;2023-09-12T05:16:19;4.70;;;3.25;;
64061;SDS011;50308;47.438;-1.528;2023-09-12T05:18:45;6.07;;;3.30;;
64061;SDS011;50308;47.438;-1.528;2023-09-12T05:21:10;4.10;;;3.03;;
64061;SDS011;50308;47.438;-1.528;2023-09-12T05:23:36;5.35;;;3.25;;
64061;SDS011;50308;47.438;-1.528;2023-09-12T05:26:02;4.28;;;3.00;;
64061;SDS011;50308;47.438;-1.528;2023-09-12T05:28:28;4.90;;;2.90;;
64061;SDS011;50308;47.438;-1.528;2023-09-12T05:30:53;5.05;;;2.88;;
64061;SDS011;50308;47.438;-1.528;2023-09-12T05:33:19;3.90;;;3.03;;
64061;SDS011;50308;47.438;-1.528;2023-09-12T05:35:45;5.75;;;3.50;;
64061;SDS011;50308;47.438;-1.528;2023-09-12T05:38:10;4.43;;;2.67;;
64061;SDS011;50308;47.438;-1.528;2023-09-12T05:40:36;5.30;;;3.47;;
64061;SDS011;50308;47.438;-1.528;2023-09-12T05:43:02;6.70;;;3.35;;
64061;SDS011;50308;47.438;-1.528;2023-09-12T05:45:28;4.38;;;3.08;;
64061;SDS011;50308;47.438;-1.528;2023-09-12T05:47:55;4.65;;;3.38;;
64061;SDS011;50308;47.438;-1.528;2023-09-12T05:50:21;5.75;;;3.20;;
64061;SDS011;50308;47.438;-1.528;2023-09-12T05:52:48;3.97;;;3.28;;
64061;SDS011;50308;47.438;-1.528;2023-09-12T05:55:14;5.85;;;3.35;;
64061;SDS011;50308;47.438;-1.528;2023-09-12T05:57:39;5.28;;;3.13;;
64061;SDS011;50308;47.438;-1.528;2023-09-12T06:00:05;4.10;;;3.25;;
64061;SDS011;50308;47.438;-1.528;2023-09-12T06:02:35;4.43;;;3.10;;
64061;SDS011;50308;47.438;-1.528;2023-09-12T06:05:00;5.20;;;3.20;;
64061;SDS011;50308;47.438;-1.528;2023-09-12T06:07:26;6.20;;;3.53;;
64061;SDS011;50308;47.438;-1.528;2023-09-12T06:09:52;6.00;;;3.30;;
64061;SDS011;50308;47.438;-1.528;2023-09-12T06:12:18;4.47;;;3.10;;
64061;SDS011;50308;47.438;-1.528;2023-09-12T06:14:43;6.32;;;2.97;;
64061;SDS011;50308;47.438;-1.528;2023-09-12T06:17:09;5.30;;;3.25;;
64061;SDS011;50308;47.438;-1.528;2023-09-12T06:19:34;6.05;;;3.10;;
64061;SDS011;50308;47.438;-1.528;2023-09-12T06:22:00;4.60;;;2.50;;
64061;SDS011;50308;47.438;-1.528;2023-09-12T06:24:26;4.35;;;3.13;;
64061;SDS011;50308;47.438;-1.528;2023-09-12T06:26:52;3.85;;;2.95;;
64061;SDS011;50308;47.438;-1.528;2023-09-12T06:29:18;5.15;;;3.10;;
64061;SDS011;50308;47.438;-1.528;2023-09-12T06:31:43;5.03;;;3.20;;
64061;SDS011;50308;47.438;-1.528;2023-09-12T06:34:09;4.38;;;3.08;;
64061;SDS011;50308;47.438;-1.528;2023-09-12T06:36:35;114.35;;;14.45;;
64061;SDS011;50308;47.438;-1.528;2023-09-12T06:39:01;14.90;;;4.68;;
64061;SDS011;50308;47.438;-1.528;2023-09-12T06:41:29;10.00;;;4.13;;
64061;SDS011;50308;47.438;-1.528;2023-09-12T06:43:55;7.97;;;4.38;;
64061;SDS011;50308;47.438;-1.528;2023-09-12T06:46:23;7.45;;;3.83;;
64061;SDS011;50308;47.438;-1.528;2023-09-12T06:48:48;6.97;;;3.88;;
64061;SDS011;50308;47.438;-1.528;2023-09-12T06:51:15;6.35;;;4.18;;
64061;SDS011;50308;47.438;-1.528;2023-09-12T06:53:41;5.30;;;3.85;;
64061;SDS011;50308;47.438;-1.528;2023-09-12T06:56:07;6.78;;;4.05;;
64061;SDS011;50308;47.438;-1.528;2023-09-12T06:58:33;6.43;;;4.50;;
64061;SDS011;50308;47.438;-1.528;2023-09-12T07:01:05;9.85;;;4.57;;
64061;SDS011;50308;47.438;-1.528;2023-09-12T07:03:35;9.05;;;4.40;;
64061;SDS011;50308;47.438;-1.528;2023-09-12T07:06:01;7.17;;;4.13;;
64061;SDS011;50308;47.438;-1.528;2023-09-12T07:08:31;6.05;;;4.70;;
64061;SDS011;50308;47.438;-1.528;2023-09-12T07:10:58;7.38;;;4.22;;
64061;SDS011;50308;47.438;-1.528;2023-09-12T07:13:30;6.35;;;4.50;;
64061;SDS011;50308;47.438;-1.528;2023-09-12T07:15:56;7.22;;;4.53;;
64061;SDS011;50308;47.438;-1.528;2023-09-12T07:18:22;6.85;;;4.68;;
64061;SDS011;50308;47.438;-1.528;2023-09-12T07:20:56;7.65;;;4.43;;
64061;SDS011;50308;47.438;-1.528;2023-09-12T07:23:25;7.53;;;4.30;;
64061;SDS011;50308;47.438;-1.528;2023-09-12T07:25:51;8.52;;;4.95;;
64061;SDS011;50308;47.438;-1.528;2023-09-12T07:28:18;8.10;;;4.75;;
64061;SDS011;50308;47.438;-1.528;2023-09-12T07:30:47;6.70;;;4.47;;
64061;SDS011;50308;47.438;-1.528;2023-09-12T07:33:13;9.07;;;5.07;;
64061;SDS011;50308;47.438;-1.528;2023-09-12T07:35:39;6.03;;;4.15;;
64061;SDS011;50308;47.438;-1.528;2023-09-12T07:38:04;8.20;;;4.40;;
64061;SDS011;50308;47.438;-1.528;2023-09-12T07:40:30;7.10;;;4.38;;
64061;SDS011;50308;47.438;-1.528;2023-09-12T07:42:56;7.20;;;4.45;;
64061;SDS011;50308;47.438;-1.528;2023-09-12T07:45:21;5.63;;;4.15;;
64061;SDS011;50308;47.438;-1.528;2023-09-12T07:47:47;8.80;;;4.68;;
64061;SDS011;50308;47.438;-1.528;2023-09-12T07:50:13;8.63;;;4.28;;
64061;SDS011;50308;47.438;-1.528;2023-09-12T07:52:39;8.15;;;4.38;;
64061;SDS011;50308;47.438;-1.528;2023-09-12T07:55:05;7.55;;;4.60;;
64061;SDS011;50308;47.438;-1.528;2023-09-12T07:57:32;5.80;;;4.07;;
64061;SDS011;50308;47.438;-1.528;2023-09-12T07:59:58;6.38;;;4.35;;
64061;SDS011;50308;47.438;-1.528;2023-09-12T08:02:24;5.38;;;3.90;;
64061;SDS011;50308;47.438;-1.528;2023-09-12T08:04:49;10.55;;;5.10;;
64061;SDS011;50308;47.438;-1.528;2023-09-12T08:07:16;7.55;;;4.63;;
64061;SDS011;50308;47.438;-1.528;2023-09-12T08:09:48;8.10;;;4.60;;
64061;SDS011;50308;47.438;-1.528;2023-09-12T08:12:16;7.35;;;4.65;;
64061;SDS011;50308;47.438;-1.528;2023-09-12T08:14:42;6.75;;;4.55;;
64061;SDS011;50308;47.438;-1.528;2023-09-12T08:17:10;6.60;;;4.25;;
64061;SDS011;50308;47.438;-1.528;2023-09-12T08:19:36;7.10;;;3.97;;
64061;SDS011;50308;47.438;-1.528;2023-09-12T08:22:01;7.38;;;4.40;;
64061;SDS011;50308;47.438;-1.528;2023-09-12T08:24:27;5.85;;;3.80;;
64061;SDS011;50308;47.438;-1.528;2023-09-12T08:26:53;6.40;;;4.07;;
64061;SDS011;50308;47.438;-1.528;2023-09-12T08:29:19;9.32;;;4.22;;
64061;SDS011;50308;47.438;-1.528;2023-09-12T08:31:45;9.95;;;4.95;;
64061;SDS011;50308;47.438;-1.528;2023-09-12T08:34:12;6.82;;;4.50;;
64061;SDS011;50308;47.438;-1.528;2023-09-12T08:36:38;5.88;;;4.50;;
64061;SDS011;50308;47.438;-1.528;2023-09-12T08:39:04;7.88;;;4.35;;
64061;SDS011;50308;47.438;-1.528;2023-09-12T08:41:33;7.10;;;4.82;;
64061;SDS011;50308;47.438;-1.528;2023-09-12T08:43:59;6.55;;;5.22;;
64061;SDS011;50308;47.438;-1.528;2023-09-12T08:46:26;10.27;;;5.90;;
64061;SDS011;50308;47.438;-1.528;2023-09-12T08:48:51;8.15;;;5.05;;
64061;SDS011;50308;47.438;-1.528;2023-09-12T08:51:21;8.65;;;5.05;;
64061;SDS011;50308;47.438;-1.528;2023-09-12T08:53:49;7.55;;;4.50;;
64061;SDS011;50308;47.438;-1.528;2023-09-12T08:56:15;9.48;;;5.45;;
64061;SDS011;50308;47.438;-1.528;2023-09-12T08:58:41;6.70;;;5.00;;
64061;SDS011;50308;47.438;-1.528;2023-09-12T09:01:08;7.30;;;4.85;;
64061;SDS011;50308;47.438;-1.528;2023-09-12T09:03:37;7.07;;;5.57;;
64061;SDS011;50308;47.438;-1.528;2023-09-12T09:06:06;6.45;;;4.95;;
64061;SDS011;50308;47.438;-1.528;2023-09-12T09:08:33;9.80;;;4.70;;
64061;SDS011;50308;47.438;-1.528;2023-09-12T09:11:00;10.65;;;4.70;;
64061;SDS011;50308;47.438;-1.528;2023-09-12T09:13:28;7.45;;;4.78;;
64061;SDS011;50308;47.438;-1.528;2023-09-12T09:21:21;9.48;;;5.05;;
64061;SDS011;50308;47.438;-1.528;2023-09-12T09:23:50;10.02;;;4.88;;
64061;SDS011;50308;47.438;-1.528;2023-09-12T09:26:17;6.88;;;4.78;;
64061;SDS011;50308;47.438;-1.528;2023-09-12T09:28:43;6.68;;;4.45;;
64061;SDS011;50308;47.438;-1.528;2023-09-12T09:31:14;7.55;;;4.10;;
64061;SDS011;50308;47.438;-1.528;2023-09-12T09:33:40;6.55;;;4.55;;
64061;SDS011;50308;47.438;-1.528;2023-09-12T09:36:06;5.50;;;4.00;;
64061;SDS011;50308;47.438;-1.528;2023-09-12T09:38:35;6.35;;;4.18;;
64061;SDS011;50308;47.438;-1.528;2023-09-12T09:41:05;5.32;;;3.63;;
64061;SDS011;50308;47.438;-1.528;2023-09-12T09:43:31;7.45;;;4.03;;
64061;SDS011;50308;47.438;-1.528;2023-09-12T09:45:57;7.07;;;3.50;;
64061;SDS011;50308;47.438;-1.528;2023-09-12T09:48:24;6.72;;;4.05;;
64061;SDS011;50308;47.438;-1.528;2023-09-12T09:50:56;5.38;;;3.13;;
64061;SDS011;50308;47.438;-1.528;2023-09-12T09:53:31;6.40;;;3.97;;
64061;SDS011;50308;47.438;-1.528;2023-09-12T09:56:08;7.17;;;3.63;;
64061;SDS011;50308;47.438;-1.528;2023-09-12T09:58:47;5.85;;;3.58;;
64061;SDS011;50308;47.438;-1.528;2023-09-12T10:01:20;6.68;;;3.97;;
64061;SDS011;50308;47.438;-1.528;2023-09-12T10:03:53;4.80;;;3.75;;
64061;SDS011;50308;47.438;-1.528;2023-09-12T10:06:26;5.05;;;3.25;;
64061;SDS011;50308;47.438;-1.528;2023-09-12T10:08:54;4.25;;;3.35;;
64061;SDS011;50308;47.438;-1.528;2023-09-12T10:11:22;4.93;;;3.47;;
64061;SDS011;50308;47.438;-1.528;2023-09-12T10:13:53;6.40;;;3.25;;
64061;SDS011;50308;47.438;-1.528;2023-09-12T10:16:24;4.35;;;3.17;;
64061;SDS011;50308;47.438;-1.528;2023-09-12T10:18:58;5.00;;;3.28;;
64061;SDS011;50308;47.438;-1.528;2023-09-12T10:21:31;4.68;;;2.80;;
64061;SDS011;50308;47.438;-1.528;2023-09-12T10:24:00;4.28;;;2.97;;
64061;SDS011;50308;47.438;-1.528;2023-09-12T10:26:31;3.85;;;2.75;;
64061;SDS011;50308;47.438;-1.528;2023-09-12T10:28:59;6.03;;;3.60;;
64061;SDS011;50308;47.438;-1.528;2023-09-12T10:31:25;5.28;;;2.70;;
64061;SDS011;50308;47.438;-1.528;2023-09-12T10:33:52;4.07;;;2.25;;
64061;SDS011;50308;47.438;-1.528;2023-09-12T10:36:21;3.38;;;2.58;;
64061;SDS011;50308;47.438;-1.528;2023-09-12T10:38:49;4.15;;;2.55;;
64061;SDS011;50308;47.438;-1.528;2023-09-12T10:41:16;5.53;;;2.22;;
64061;SDS011;50308;47.438;-1.528;2023-09-12T10:43:44;3.28;;;2.20;;
64061;SDS011;50308;47.438;-1.528;2023-09-12T10:46:12;4.88;;;2.33;;
64061;SDS011;50308;47.438;-1.528;2023-09-12T10:48:38;4.40;;;2.10;;
64061;SDS011;50308;47.438;-1.528;2023-09-12T10:51:07;6.45;;;2.65;;
64061;SDS011;50308;47.438;-1.528;2023-09-12T10:53:34;3.17;;;1.70;;
64061;SDS011;50308;47.438;-1.528;2023-09-12T10:56:20;7.10;;;2.05;;
64061;SDS011;50308;47.438;-1.528;2023-09-12T11:01:36;5.13;;;1.83;;
64061;SDS011;50308;47.438;-1.528;2023-09-12T11:06:45;4.18;;;1.80;;
64061;SDS011;50308;47.438;-1.528;2023-09-12T11:15:04;2.95;;;1.65;;
64061;SDS011;50308;47.438;-1.528;2023-09-12T11:17:31;3.97;;;1.67;;
64061;SDS011;50308;47.438;-1.528;2023-09-12T11:20:03;4.03;;;2.10;;
64061;SDS011;50308;47.438;-1.528;2023-09-12T11:22:35;3.08;;;1.98;;
64061;SDS011;50308;47.438;-1.528;2023-09-12T11:25:15;4.35;;;1.70;;
64061;SDS011;50308;47.438;-1.528;2023-09-12T11:27:45;3.63;;;1.80;;
64061;SDS011;50308;47.438;-1.528;2023-09-12T11:30:18;2.88;;;1.70;;
64061;SDS011;50308;47.438;-1.528;2023-09-12T11:32:52;2.50;;;1.80;;
64061;SDS011;50308;47.438;-1.528;2023-09-12T11:35:22;3.72;;;1.63;;
64061;SDS011;50308;47.438;-1.528;2023-09-12T11:37:50;3.22;;;2.00;;
64061;SDS011;50308;47.438;-1.528;2023-09-12T11:40:17;3.20;;;1.63;;
64061;SDS011;50308;47.438;-1.528;2023-09-12T11:42:47;2.88;;;1.90;;
64061;SDS011;50308;47.438;-1.528;2023-09-12T11:45:15;3.38;;;1.70;;
64061;SDS011;50308;47.438;-1.528;2023-09-12T11:47:43;3.88;;;1.52;;
64061;SDS011;50308;47.438;-1.528;2023-09-12T11:50:26;2.20;;;1.60;;
64061;SDS011;50308;47.438;-1.528;2023-09-12T11:53:27;3.20;;;1.65;;
64061;SDS011;50308;47.438;-1.528;2023-09-12T11:55:56;3.70;;;1.50;;
64061;SDS011;50308;47.438;-1.528;2023-09-12T11:58:23;2.75;;;1.67;;
64061;SDS011;50308;47.438;-1.528;2023-09-12T12:00:50;3.40;;;1.92;;
64061;SDS011;50308;47.438;-1.528;2023-09-12T12:03:20;3.33;;;1.65;;
64061;SDS011;50308;47.438;-1.528;2023-09-12T12:05:47;2.75;;;1.40;;
64061;SDS011;50308;47.438;-1.528;2023-09-12T12:08:13;3.13;;;1.45;;
64061;SDS011;50308;47.438;-1.528;2023-09-12T12:10:41;3.42;;;1.33;;
64061;SDS011;50308;47.438;-1.528;2023-09-12T12:13:10;4.97;;;1.50;;
64061;SDS011;50308;47.438;-1.528;2023-09-12T12:15:37;5.95;;;1.45;;
64061;SDS011;50308;47.438;-1.528;2023-09-12T12:18:02;3.58;;;1.65;;
64061;SDS011;50308;47.438;-1.528;2023-09-12T12:20:29;3.50;;;1.45;;
64061;SDS011;50308;47.438;-1.528;2023-09-12T12:22:55;3.35;;;1.40;;
64061;SDS011;50308;47.438;-1.528;2023-09-12T12:25:21;2.10;;;1.40;;
64061;SDS011;50308;47.438;-1.528;2023-09-12T12:27:47;2.83;;;1.52;;
64061;SDS011;50308;47.438;-1.528;2023-09-12T12:30:13;2.80;;;1.48;;
64061;SDS011;50308;47.438;-1.528;2023-09-12T12:32:39;1.90;;;1.40;;
64061;SDS011;50308;47.438;-1.528;2023-09-12T12:35:16;2.83;;;2.08;;
64061;SDS011;50308;47.438;-1.528;2023-09-12T12:37:43;3.50;;;1.38;;
64061;SDS011;50308;47.438;-1.528;2023-09-12T12:40:12;3.92;;;1.52;;
64061;SDS011;50308;47.438;-1.528;2023-09-12T12:42:39;2.22;;;1.10;;
64061;SDS011;50308;47.438;-1.528;2023-09-12T12:45:17;2.88;;;1.50;;
64061;SDS011;50308;47.438;-1.528;2023-09-12T12:47:44;2.25;;;1.45;;
64061;SDS011;50308;47.438;-1.528;2023-09-12T12:50:10;4.35;;;1.40;;
64061;SDS011;50308;47.438;-1.528;2023-09-12T12:55:09;4.13;;;1.33;;
64061;SDS011;50308;47.438;-1.528;2023-09-12T12:57:39;3.08;;;1.63;;
64061;SDS011;50308;47.438;-1.528;2023-09-12T13:00:08;4.10;;;1.23;;
64061;SDS011;50308;47.438;-1.528;2023-09-12T13:02:42;3.88;;;1.60;;
64061;SDS011;50308;47.438;-1.528;2023-09-12T13:07:50;2.28;;;1.13;;
64061;SDS011;50308;47.438;-1.528;2023-09-12T13:10:16;3.15;;;1.20;;
64061;SDS011;50308;47.438;-1.528;2023-09-12T13:12:42;2.25;;;1.25;;
64061;SDS011;50308;47.438;-1.528;2023-09-12T13:15:10;2.97;;;1.48;;
64061;SDS011;50308;47.438;-1.528;2023-09-12T13:17:36;2.05;;;1.20;;
64061;SDS011;50308;47.438;-1.528;2023-09-12T13:20:03;2.78;;;1.20;;
64061;SDS011;50308;47.438;-1.528;2023-09-12T13:22:29;2.00;;;1.17;;
64061;SDS011;50308;47.438;-1.528;2023-09-12T13:24:54;3.15;;;1.02;;
64061;SDS011;50308;47.438;-1.528;2023-09-12T13:27:21;1.70;;;1.23;;
64061;SDS011;50308;47.438;-1.528;2023-09-12T13:29:47;2.10;;;1.08;;
64061;SDS011;50308;47.438;-1.528;2023-09-12T13:32:13;3.30;;;1.25;;
64061;SDS011;50308;47.438;-1.528;2023-09-12T13:34:40;1.77;;;1.02;;
64061;SDS011;50308;47.438;-1.528;2023-09-12T13:37:06;2.28;;;1.23;;
64061;SDS011;50308;47.438;-1.528;2023-09-12T13:39:31;1.80;;;1.10;;
64061;SDS011;50308;47.438;-1.528;2023-09-12T13:41:57;2.15;;;1.27;;
64061;SDS011;50308;47.438;-1.528;2023-09-12T13:44:25;3.22;;;1.30;;
64061;SDS011;50308;47.438;-1.528;2023-09-12T13:46:50;3.53;;;1.13;;
64061;SDS011;50308;47.438;-1.528;2023-09-12T13:49:16;1.95;;;1.10;;
64061;SDS011;50308;47.438;-1.528;2023-09-12T13:51:42;2.67;;;1.10;;
64061;SDS011;50308;47.438;-1.528;2023-09-12T13:54:07;2.22;;;1.00;;
64061;SDS011;50308;47.438;-1.528;2023-09-12T13:56:39;3.40;;;1.10;;
64061;SDS011;50308;47.438;-1.528;2023-09-12T13:59:05;2.30;;;1.20;;
64061;SDS011;50308;47.438;-1.528;2023-09-12T14:01:31;2.58;;;0.93;;
64061;SDS011;50308;47.438;-1.528;2023-09-12T14:03:57;3.70;;;1.17;;
64061;SDS011;50308;47.438;-1.528;2023-09-12T14:06:23;2.10;;;1.17;;
64061;SDS011;50308;47.438;-1.528;2023-09-12T14:08:49;3.45;;;1.27;;
64061;SDS011;50308;47.438;-1.528;2023-09-12T14:11:14;1.95;;;1.20;;
64061;SDS011;50308;47.438;-1.528;2023-09-12T14:13:40;3.40;;;1.30;;
64061;SDS011;50308;47.438;-1.528;2023-09-12T14:16:06;1.73;;;1.27;;
64061;SDS011;50308;47.438;-1.528;2023-09-12T14:18:31;2.50;;;1.27;;
64061;SDS011;50308;47.438;-1.528;2023-09-12T14:20:57;2.08;;;1.27;;
64061;SDS011;50308;47.438;-1.528;2023-09-12T14:23:23;3.75;;;1.40;;
64061;SDS011;50308;47.438;-1.528;2023-09-12T14:25:49;2.70;;;1.40;;
64061;SDS011;50308;47.438;-1.528;2023-09-12T14:28:14;2.88;;;1.17;;
64061;SDS011;50308;47.438;-1.528;2023-09-12T14:30:40;2.30;;;1.23;;
64061;SDS011;50308;47.438;-1.528;2023-09-12T14:33:09;2.08;;;1.40;;
64061;SDS011;50308;47.438;-1.528;2023-09-12T14:35:35;2.47;;;1.17;;
64061;SDS011;50308;47.438;-1.528;2023-09-12T14:38:03;2.28;;;1.05;;
64061;SDS011;50308;47.438;-1.528;2023-09-12T14:40:32;2.28;;;1.25;;
64061;SDS011;50308;47.438;-1.528;2023-09-12T14:42:57;2.13;;;1.40;;
64061;SDS011;50308;47.438;-1.528;2023-09-12T14:45:23;2.53;;;1.25;;
64061;SDS011;50308;47.438;-1.528;2023-09-12T14:47:50;1.90;;;1.17;;
64061;SDS011;50308;47.438;-1.528;2023-09-12T14:50:16;2.33;;;1.45;;
64061;SDS011;50308;47.438;-1.528;2023-09-12T14:52:41;4.18;;;1.40;;
64061;SDS011;50308;47.438;-1.528;2023-09-12T14:55:08;1.95;;;1.40;;
64061;SDS011;50308;47.438;-1.528;2023-09-12T14:57:34;1.92;;;1.15;;
64061;SDS011;50308;47.438;-1.528;2023-09-12T15:00:00;2.42;;;1.30;;